Time;durP1;ratioP1;P1;durP2;ratioP2;P2;SDS_P1;SDS_P2;PMS_P1;PMS_P2;Temp;Humidity;BMP_temperature;BMP_pressure;BME280_temperature;BME280_humidity;BME280_pressure;Samples;Min_cycle;Max_cycle;Signal;HPM_P1;HPM_P2
2021/09/16 00:00:10;;;;;;;0.70;0.60;;;;;;;17.55;100.00;-21157.91;6276835;22;20474;-71
2021/09/16 00:02:42;;;;;;;0.70;0.60;;;;;;;17.36;100.00;-21152.97;6277426;22;20832;-71
2021/09/16 00:05:12;;;;;;;0.70;0.60;;;;;;;17.29;100.00;-21150.91;6225623;22;20398;-71
2021/09/16 00:07:40;;;;;;;0.80;0.77;;;;;;;17.18;100.00;-21148.03;6250717;22;20409;-72
2021/09/16 00:10:09;;;;;;;0.70;0.60;;;;;;;17.10;100.00;-21145.97;6276623;22;20833;-72
2021/09/16 00:12:36;;;;;;;0.70;0.70;;;;;;;17.13;100.00;-21146.81;6277309;22;20823;-71
2021/09/16 00:15:04;;;;;;;0.70;0.60;;;;;;;17.00;100.00;-21143.09;6249938;22;20743;-72
2021/09/16 00:17:32;;;;;;;0.70;0.60;;;;;;;16.99;100.00;-21142.97;6249747;22;20387;-72
2021/09/16 00:20:03;;;;;;;0.70;0.60;;;;;;;17.01;100.00;-21143.38;6249903;22;20866;-72
2021/09/16 00:22:31;;;;;;;0.70;0.60;;;;;;;16.95;100.00;-21141.72;6277052;22;20473;-72
2021/09/16 00:24:58;;;;;;;0.70;0.60;;;;;;;16.98;100.00;-21142.69;6276877;22;20375;-71
2021/09/16 00:27:29;;;;;;;0.70;0.70;;;;;;;16.96;100.00;-21142.00;6276910;22;20392;-71
2021/09/16 00:30:01;;;;;;;0.70;0.63;;;;;;;16.83;100.00;-21138.72;6249614;22;20506;-72
2021/09/16 00:32:37;;;;;;;0.70;0.67;;;;;;;16.72;100.00;-21135.69;6225826;22;20501;-71
2021/09/16 00:35:12;;;;;;;0.70;0.70;;;;;;;16.68;100.00;-21134.59;6250647;22;20684;-71
2021/09/16 00:37:45;;;;;;;0.70;0.67;;;;;;;16.56;100.00;-21131.28;6277028;22;20421;-71
2021/09/16 00:40:19;;;;;;;0.70;0.70;;;;;;;16.58;100.00;-21131.84;6276578;22;20370;-71
2021/09/16 00:42:50;;;;;;;0.73;0.70;;;;;;;16.55;100.00;-21131.03;6249893;22;20896;-71
2021/09/16 00:45:24;;;;;;;0.70;0.70;;;;;;;16.59;100.00;-21132.13;6224926;22;20391;-70
2021/09/16 00:47:55;;;;;;;0.80;0.70;;;;;;;16.54;100.00;-21130.88;6276565;22;20777;-71
2021/09/16 00:50:37;;;;;;;0.70;0.60;;;;;;;16.37;100.00;-21126.34;6251786;22;20422;-71
2021/09/16 00:53:10;;;;;;;0.70;0.70;;;;;;;16.22;100.00;-21122.22;6248539;22;20951;-70
2021/09/16 00:55:42;;;;;;;0.70;0.60;;;;;;;16.01;100.00;-21116.47;6201468;22;20985;-71
2021/09/16 00:58:22;;;;;;;0.70;0.60;;;;;;;15.86;100.00;-21112.63;6250119;22;20407;-71
2021/09/16 01:00:58;;;;;;;0.70;0.70;;;;;;;15.88;100.00;-21113.16;6252694;22;20403;-71
2021/09/16 01:03:34;;;;;;;0.70;0.60;;;;;;;15.81;100.00;-21111.25;6249258;22;20395;-71
2021/09/16 01:06:11;;;;;;;0.80;0.70;;;;;;;15.56;100.00;-21104.38;6200856;22;20456;-71
2021/09/16 01:08:44;;;;;;;0.73;0.73;;;;;;;15.37;100.00;-21099.28;6250685;22;20406;-71
2021/09/16 01:11:21;;;;;;;0.70;0.60;;;;;;;15.26;100.00;-21096.38;6249972;22;20391;-71
2021/09/16 01:13:57;;;;;;;0.70;0.60;;;;;;;15.25;100.00;-21096.13;6224952;22;20416;-72
2021/09/16 01:16:33;;;;;;;0.70;0.60;;;;;;;15.08;100.00;-21091.56;6250792;22;20421;-71
2021/09/16 01:19:07;;;;;;;0.70;0.60;;;;;;;15.02;100.00;-21089.78;6276336;22;20393;-71
2021/09/16 01:21:40;;;;;;;0.70;0.60;;;;;;;14.75;100.00;-21082.63;6249563;22;20405;-71
2021/09/16 01:24:12;;;;;;;0.70;0.60;;;;;;;14.59;100.00;-21078.22;6225008;22;20435;-71
2021/09/16 01:26:43;;;;;;;0.80;0.70;;;;;;;14.63;100.00;-20535.47;6249948;22;20366;-71
2021/09/16 01:29:11;;;;;;;0.73;0.70;;;;;;;14.48;100.00;-16640.38;6276334;22;20476;-71
2021/09/16 01:31:41;;;;;;;0.80;0.73;;;;;;;14.34;100.00;-10233.13;6249360;22;20430;-71
2021/09/16 01:34:12;;;;;;;0.70;0.60;;;;;;;14.28;100.00;-829.00;6276823;22;20391;-70
2021/09/16 01:36:41;;;;;;;0.70;0.60;;;;;;;14.30;100.00;10562.75;6250085;22;20451;-71
2021/09/16 01:39:09;;;;;;;0.70;0.60;;;;;;;14.31;100.00;21129.03;6276681;22;20534;-71
2021/09/16 01:41:37;;;;;;;0.80;0.70;;;;;;;14.35;100.00;30453.88;6247918;22;20482;-71
2021/09/16 01:44:05;;;;;;;0.70;0.60;;;;;;;14.30;100.00;37239.06;6276904;22;20372;-71
2021/09/16 01:46:33;;;;;;;0.70;0.60;;;;;;;14.27;100.00;42572.41;6275668;22;20384;-70
2021/09/16 01:49:03;;;;;;;0.70;0.70;;;;;;;14.22;100.00;46029.44;6276476;22;20395;-70
2021/09/16 01:51:31;;;;;;;2.00;1.37;;;;;;;14.19;100.00;48330.91;6276495;22;20372;-70
2021/09/16 01:53:59;;;;;;;0.70;0.60;;;;;;;14.13;100.00;50301.59;6276141;22;20435;-71
2021/09/16 01:56:30;;;;;;;0.70;0.60;;;;;;;14.04;100.00;51281.72;6248895;22;20424;-71
2021/09/16 01:58:59;;;;;;;0.70;0.60;;;;;;;13.87;100.00;51925.91;6276026;22;20880;-71
2021/09/16 02:01:26;;;;;;;0.70;0.70;;;;;;;13.73;100.00;52901.63;6276792;22;20451;-71
2021/09/16 02:03:53;;;;;;;0.80;0.70;;;;;;;13.62;100.00;53220.22;6224150;22;20455;-70
2021/09/16 02:06:23;;;;;;;0.70;0.60;;;;;;;13.60;100.00;53547.75;6276220;22;20396;-70
2021/09/16 02:08:50;;;;;;;0.70;0.70;;;;;;;13.56;100.00;53873.38;6276023;22;20739;-71
2021/09/16 02:11:17;;;;;;;0.70;0.70;;;;;;;13.62;100.00;54208.63;6249234;22;20409;-71
2021/09/16 02:13:44;;;;;;;0.70;0.60;;;;;;;13.64;100.00;54210.56;6276459;22;20826;-70
2021/09/16 02:16:14;;;;;;;0.70;0.63;;;;;;;13.59;100.00;54206.22;6250081;22;20439;-70
2021/09/16 02:18:42;;;;;;;0.70;0.60;;;;;;;13.48;100.00;53866.69;6248433;22;20749;-70
2021/09/16 02:21:09;;;;;;;0.70;0.60;;;;;;;13.41;100.00;53530.63;6249324;22;20395;-70
2021/09/16 02:23:37;;;;;;;0.70;0.70;;;;;;;13.36;100.00;53196.53;6223800;22;20426;-71
2021/09/16 02:26:04;;;;;;;0.70;0.60;;;;;;;13.32;100.00;52863.03;6249300;22;20399;-71
2021/09/16 02:28:31;;;;;;;0.70;0.70;;;;;;;13.31;100.00;52532.88;6276083;22;21028;-71
2021/09/16 02:30:57;;;;;;;0.70;0.60;;;;;;;13.27;100.00;51871.34;6276518;22;20769;-71
2021/09/16 02:33:27;;;;;;;0.80;0.70;;;;;;;13.24;100.00;51210.44;6224434;22;20790;-71
2021/09/16 02:35:56;;;;;;;0.70;0.60;;;;;;;13.15;100.00;50215.41;6224422;22;20740;-70
2021/09/16 02:38:23;;;;;;;0.70;0.70;;;;;;;13.10;100.00;49553.25;6275186;22;20401;-71
2021/09/16 02:40:50;;;;;;;0.70;0.70;;;;;;;13.10;100.00;48567.03;6276063;22;20793;-71
2021/09/16 02:43:17;;;;;;;0.70;0.63;;;;;;;13.05;100.00;47577.69;6250594;22;20429;-71
2021/09/16 02:45:45;;;;;;;0.70;0.70;;;;;;;13.05;100.00;47249.13;6251189;22;20386;-70
2021/09/16 02:48:11;;;;;;;0.70;0.60;;;;;;;12.99;100.00;46258.63;6278038;22;20439;-71
2021/09/16 02:50:40;;;;;;;0.70;0.70;;;;;;;12.95;100.00;45270.25;6278023;22;20414;-70
2021/09/16 02:53:07;;;;;;;0.70;0.70;;;;;;;12.92;100.00;44282.72;6251016;22;20496;-70
2021/09/16 02:55:34;;;;;;;0.70;0.60;;;;;;;12.85;100.00;43293.22;6277611;22;20371;-70
2021/09/16 02:58:03;;;;;;;0.70;0.70;;;;;;;12.81;100.00;42306.13;6249714;22;20403;-71
2021/09/16 03:00:31;;;;;;;0.70;0.70;;;;;;;12.78;100.00;41320.25;6250745;22;20406;-71
2021/09/16 03:02:58;;;;;;;0.70;0.70;;;;;;;12.71;100.00;40331.78;6225676;22;20494;-70
2021/09/16 03:05:25;;;;;;;0.70;0.60;;;;;;;12.66;100.00;39017.72;6277561;22;20394;-71
2021/09/16 03:07:54;;;;;;;0.70;0.70;;;;;;;12.66;100.00;37380.44;6250650;22;20700;-70
2021/09/16 03:10:21;;;;;;;0.70;0.70;;;;;;;12.65;100.00;35697.63;6250588;22;20456;-72
2021/09/16 03:12:50;;;;;;;0.70;0.70;;;;;;;12.67;100.00;33649.03;6251355;22;20475;-71
2021/09/16 03:15:21;;;;;;;0.70;0.60;;;;;;;12.68;100.00;31356.47;6252253;22;20368;-72
2021/09/16 03:17:53;;;;;;;0.70;0.70;;;;;;;12.76;100.00;29589.53;6250810;22;20414;-71
2021/09/16 03:20:21;;;;;;;0.70;0.70;;;;;;;12.86;100.00;27482.00;6277754;22;20389;-71
2021/09/16 03:22:48;;;;;;;0.70;0.60;;;;;;;12.99;100.00;25494.13;6225147;22;20422;-73
2021/09/16 03:25:16;;;;;;;0.70;0.60;;;;;;;13.04;100.00;23441.56;6277446;22;20374;-73
2021/09/16 03:27:43;;;;;;;0.70;0.60;;;;;;;12.95;100.00;21379.44;6277614;22;20743;-73
2021/09/16 03:30:13;;;;;;;0.70;0.63;;;;;;;12.86;100.00;19657.41;6277667;22;20825;-72
2021/09/16 03:32:41;;;;;;;0.70;0.60;;;;;;;12.80;100.00;17856.66;6250961;22;20394;-73
2021/09/16 03:35:09;;;;;;;0.70;0.70;;;;;;;12.71;100.00;16480.53;6249747;22;20391;-73
2021/09/16 03:37:36;;;;;;;0.70;0.70;;;;;;;12.68;100.00;14863.38;6249025;22;20517;-72
2021/09/16 03:40:04;;;;;;;0.70;0.70;;;;;;;12.70;100.00;13218.13;6277499;22;20895;-73
2021/09/16 03:42:35;;;;;;;0.70;0.60;;;;;;;12.67;100.00;11414.81;6277188;22;20387;-72
2021/09/16 03:45:02;;;;;;;0.70;0.70;;;;;;;12.64;100.00;9435.28;6277545;22;20375;-72
2021/09/16 03:47:29;;;;;;;0.70;0.60;;;;;;;12.53;100.00;7410.16;6250851;22;20761;-73
2021/09/16 03:49:57;;;;;;;0.70;0.67;;;;;;;12.48;100.00;5329.50;6251146;22;20412;-72
2021/09/16 03:52:24;;;;;;;0.80;0.70;;;;;;;12.47;100.00;3511.59;6249818;22;20859;-73
2021/09/16 03:54:51;;;;;;;0.70;0.63;;;;;;;12.48;100.00;1442.13;6276616;22;20396;-73
2021/09/16 03:57:20;;;;;;;0.70;0.70;;;;;;;12.58;100.00;-231.25;6249789;22;20432;-73
2021/09/16 03:59:48;;;;;;;0.70;0.60;;;;;;;12.71;100.00;-1856.19;6250769;22;20452;-72
2021/09/16 04:02:15;;;;;;;0.70;0.60;;;;;;;12.98;100.00;-3104.22;6250349;22;20847;-73
2021/09/16 04:04:43;;;;;;;0.70;0.70;;;;;;;13.13;100.00;-4089.91;6250276;22;20490;-73
2021/09/16 04:07:11;;;;;;;0.70;0.70;;;;;;;13.38;100.00;-5144.22;6249575;22;20786;-72
2021/09/16 04:09:37;;;;;;;0.70;0.70;;;;;;;13.49;100.00;-6006.44;6276683;22;20498;-72
2021/09/16 04:12:06;;;;;;;0.70;0.60;;;;;;;13.63;100.00;-6583.22;6248335;22;20426;-72
2021/09/16 04:14:33;;;;;;;0.70;0.60;;;;;;;13.78;100.00;-6485.22;6249983;22;20413;-72
2021/09/16 04:17:02;;;;;;;0.70;0.60;;;;;;;13.84;100.00;-6209.78;6276287;22;20417;-73
2021/09/16 04:19:29;;;;;;;0.70;0.60;;;;;;;13.88;100.00;-5936.75;6276685;22;20425;-73
2021/09/16 04:21:56;;;;;;;0.70;0.70;;;;;;;13.82;100.00;-5585.03;6276563;22;20394;-72
2021/09/16 04:24:23;;;;;;;0.70;0.70;;;;;;;13.91;100.00;-5026.13;6250481;22;20491;-72
2021/09/16 04:26:50;;;;;;;0.70;0.60;;;;;;;13.91;100.00;-4641.53;6249940;22;20393;-72
2021/09/16 04:29:18;;;;;;;0.70;0.70;;;;;;;13.92;100.00;-3988.59;6249303;22;20938;-72
2021/09/16 04:31:47;;;;;;;3.43;1.23;;;;;;;13.93;100.00;-3745.59;6276929;22;20375;-73
2021/09/16 04:34:20;;;;;;;0.70;0.60;;;;;;;13.96;100.00;-3127.88;6251370;22;20375;-73
2021/09/16 04:36:47;;;;;;;0.70;0.60;;;;;;;14.04;100.00;-2454.13;6250368;22;20448;-72
2021/09/16 04:39:14;;;;;;;0.70;0.60;;;;;;;14.01;100.00;-1843.81;6249771;22;20404;-72
2021/09/16 04:41:41;;;;;;;0.70;0.70;;;;;;;14.03;100.00;-974.78;6249998;22;20371;-72
2021/09/16 04:44:08;;;;;;;0.70;0.60;;;;;;;13.98;100.00;89.28;6250268;22;20367;-72
2021/09/16 04:46:34;;;;;;;0.70;0.70;;;;;;;13.87;100.00;853.84;6249485;22;20364;-72
2021/09/16 04:49:01;;;;;;;0.70;0.60;;;;;;;13.82;100.00;1540.25;6277066;22;20372;-72
2021/09/16 04:51:30;;;;;;;0.80;0.80;;;;;;;13.69;100.00;2124.56;6277034;22;20394;-72
2021/09/16 04:53:56;;;;;;;0.83;0.83;;;;;;;13.50;100.00;2368.53;6276978;22;20406;-72
2021/09/16 04:56:24;;;;;;;0.70;0.60;;;;;;;13.38;100.00;2316.56;6248743;22;20392;-72
2021/09/16 04:58:51;;;;;;;0.80;0.70;;;;;;;13.26;100.00;2307.72;6249830;22;20430;-73
2021/09/16 05:01:18;;;;;;;0.70;0.70;;;;;;;13.11;100.00;2022.47;6250205;22;20424;-72
2021/09/16 05:03:45;;;;;;;0.70;0.60;;;;;;;13.03;100.00;1596.44;6249776;22;20415;-72
2021/09/16 05:06:14;;;;;;;0.80;0.80;;;;;;;12.99;100.00;1284.69;6276034;22;20492;-72
2021/09/16 05:08:43;;;;;;;1.33;1.07;;;;;;;12.94;100.00;957.75;6276786;22;20460;-72
2021/09/16 05:11:12;;;;;;;0.70;0.60;;;;;;;12.91;100.00;922.03;6276178;22;20390;-72
2021/09/16 05:13:39;;;;;;;0.80;0.73;;;;;;;12.88;100.00;618.16;6249707;22;20415;-72
2021/09/16 05:16:08;;;;;;;0.70;0.60;;;;;;;12.90;100.00;615.75;6276655;22;20444;-72
2021/09/16 05:18:40;;;;;;;0.70;0.70;;;;;;;12.86;100.00;228.38;6249606;22;20441;-71
2021/09/16 05:21:07;;;;;;;0.70;0.70;;;;;;;12.80;100.00;-252.66;6276895;22;20476;-72
2021/09/16 05:23:35;;;;;;;0.70;0.70;;;;;;;12.77;100.00;-601.88;6249180;22;20517;-72
2021/09/16 05:26:03;;;;;;;0.70;0.70;;;;;;;12.75;100.00;-1102.66;6275247;22;20390;-72
2021/09/16 05:28:30;;;;;;;0.70;0.70;;;;;;;12.73;100.00;-1651.38;6249429;22;20497;-72
2021/09/16 05:30:58;;;;;;;0.70;0.60;;;;;;;12.71;100.00;-2634.66;6276945;22;20387;-72
2021/09/16 05:33:25;;;;;;;0.70;0.60;;;;;;;12.72;100.00;-3695.88;6275183;22;20391;-72
2021/09/16 05:35:52;;;;;;;0.70;0.60;;;;;;;12.74;100.00;-4698.69;6276218;22;20436;-72
2021/09/16 05:38:19;;;;;;;0.70;0.60;;;;;;;12.70;100.00;-5872.78;6275993;22;20458;-72
2021/09/16 05:40:47;;;;;;;0.70;0.60;;;;;;;12.64;100.00;-6796.41;6249201;22;20390;-72
2021/09/16 05:43:15;;;;;;;0.70;0.60;;;;;;;12.63;100.00;-7876.25;6248778;22;20513;-72
2021/09/16 05:45:42;;;;;;;0.70;0.70;;;;;;;12.71;100.00;-8757.19;6276218;22;20482;-72
2021/09/16 05:48:10;;;;;;;0.70;0.60;;;;;;;12.79;100.00;-9607.88;6224289;22;20499;-72
2021/09/16 05:50:37;;;;;;;0.70;0.60;;;;;;;12.78;100.00;-10238.19;6276508;22;20391;-72
2021/09/16 05:53:04;;;;;;;0.70;0.60;;;;;;;12.80;100.00;-10833.44;6276390;22;20418;-72
2021/09/16 05:55:31;;;;;;;0.70;0.63;;;;;;;12.90;100.00;-11328.72;6248479;22;20470;-72
2021/09/16 05:57:58;;;;;;;0.70;0.70;;;;;;;12.94;100.00;-11838.47;6276023;22;20451;-72
2021/09/16 06:00:27;;;;;;;0.70;0.70;;;;;;;13.06;100.00;-12339.19;6249456;22;20919;-72
2021/09/16 06:02:54;;;;;;;0.70;0.60;;;;;;;13.19;100.00;-12257.59;6249192;22;20410;-72
2021/09/16 06:05:21;;;;;;;0.70;0.60;;;;;;;13.22;100.00;-12280.75;6249087;22;20393;-71
2021/09/16 06:07:48;;;;;;;0.70;0.60;;;;;;;13.28;100.00;-12311.72;6276387;22;20402;-71
2021/09/16 06:10:15;;;;;;;0.70;0.70;;;;;;;13.37;100.00;-12103.50;6275825;22;20480;-72
2021/09/16 06:12:42;;;;;;;0.70;0.70;;;;;;;13.40;100.00;-12033.34;6223867;22;20403;-72
2021/09/16 06:15:10;;;;;;;0.70;0.60;;;;;;;13.65;100.00;-11559.41;6249237;22;20399;-71
2021/09/16 06:17:40;;;;;;;0.70;0.60;;;;;;;13.71;100.00;-10812.94;6249866;22;20433;-71
2021/09/16 06:20:08;;;;;;;0.80;0.70;;;;;;;13.78;100.00;-10139.34;6226233;22;20388;-72
2021/09/16 06:22:37;;;;;;;0.70;0.60;;;;;;;13.87;100.00;-9228.22;6277828;22;20417;-72
2021/09/16 06:25:06;;;;;;;0.70;0.70;;;;;;;14.07;100.00;-8471.47;6251412;22;20387;-72
2021/09/16 06:27:33;;;;;;;0.70;0.70;;;;;;;14.40;100.00;-6981.03;6277942;22;20763;-72
2021/09/16 06:30:02;;;;;;;0.80;0.70;;;;;;;14.83;100.00;-5344.06;6278253;22;20397;-71
2021/09/16 06:32:29;;;;;;;0.70;0.63;;;;;;;15.06;100.00;-3491.22;6278245;22;20920;-72
2021/09/16 06:34:58;;;;;;;0.70;0.70;;;;;;;15.27;100.00;-1641.09;6277974;22;20398;-71
2021/09/16 06:37:25;;;;;;;0.83;0.80;;;;;;;15.40;100.00;195.50;6226306;22;20759;-72
2021/09/16 06:39:52;;;;;;;0.70;0.70;;;;;;;15.53;100.00;1655.13;6250950;22;20389;-71
2021/09/16 06:42:19;;;;;;;0.70;0.70;;;;;;;15.54;100.00;3234.13;6251150;22;20377;-71
2021/09/16 06:44:49;;;;;;;0.83;0.77;;;;;;;15.85;100.00;5449.78;6278064;22;20390;-72
2021/09/16 06:47:16;;;;;;;0.70;0.60;;;;;;;16.04;100.00;7320.03;6251031;22;20532;-73
2021/09/16 06:49:46;;;;;;;0.70;0.60;;;;;;;16.19;100.00;9163.81;6251313;22;20391;-71
2021/09/16 06:52:16;;;;;;;0.90;0.90;;;;;;;16.21;100.00;11108.06;6278627;22;20421;-72
2021/09/16 06:54:44;;;;;;;0.77;0.77;;;;;;;16.32;100.00;13329.75;6250725;22;20859;-72
2021/09/16 06:57:11;;;;;;;0.70;0.70;;;;;;;16.45;100.00;15364.94;6249990;22;20435;-72
2021/09/16 06:59:38;;;;;;;0.70;0.70;;;;;;;16.48;100.00;17270.94;6251224;22;20423;-72
2021/09/16 07:02:05;;;;;;;0.70;0.60;;;;;;;16.63;100.00;19105.84;6278177;22;20401;-72
2021/09/16 07:04:38;;;;;;;0.70;0.70;;;;;;;16.76;100.00;21110.91;6278111;22;20436;-71
2021/09/16 07:07:11;;;;;;;0.80;0.80;;;;;;;16.97;100.00;23252.34;6278396;22;20394;-72
2021/09/16 07:09:39;;;;;;;0.70;0.70;;;;;;;16.81;100.00;24563.66;6251328;22;20486;-71
2021/09/16 07:12:07;;;;;;;0.80;0.80;;;;;;;16.67;100.00;26101.06;6277006;22;20405;-71
2021/09/16 07:14:35;;;;;;;0.70;0.60;;;;;;;17.07;100.00;28174.75;6277562;22;20401;-71
2021/09/16 07:17:02;;;;;;;0.70;0.70;;;;;;;17.15;100.00;29592.25;6251133;22;20370;-71
2021/09/16 07:19:30;;;;;;;0.70;0.60;;;;;;;17.18;100.00;30527.03;6277803;22;20385;-72
2021/09/16 07:21:57;;;;;;;0.70;0.60;;;;;;;17.34;100.00;31305.16;6278073;22;20910;-71
2021/09/16 07:24:25;;;;;;;0.70;0.60;;;;;;;17.68;100.00;31643.53;6250542;22;20428;-71
2021/09/16 07:26:53;;;;;;;0.83;0.83;;;;;;;17.89;100.00;30108.28;6277697;22;20375;-71
2021/09/16 07:29:22;;;;;;;0.70;0.60;;;;;;;17.80;100.00;26107.25;6277416;22;20398;-71
2021/09/16 07:31:53;;;;;;;0.70;0.60;;;;;;;17.81;100.00;19565.78;6276429;22;20668;-72
2021/09/16 07:34:21;;;;;;;0.70;0.60;;;;;;;17.75;100.00;12422.88;6277705;22;20855;-71
2021/09/16 07:36:49;;;;;;;0.73;0.70;;;;;;;17.94;100.00;1991.88;6250953;22;20429;-71
2021/09/16 07:39:18;;;;;;;0.80;0.70;;;;;;;18.04;100.00;-10873.78;6250329;22;20441;-72
2021/09/16 07:41:46;;;;;;;0.80;0.70;;;;;;;18.07;100.00;-20805.00;6250347;22;20399;-72
2021/09/16 07:44:19;;;;;;;0.80;0.70;;;;;;;18.12;100.00;-21173.13;6251345;22;20359;-72
2021/09/16 07:46:46;;;;;;;0.70;0.70;;;;;;;18.04;100.00;-21171.22;6250179;22;20378;-72
2021/09/16 07:49:19;;;;;;;0.70;0.60;;;;;;;18.17;100.00;-21174.50;6277359;22;20367;-71
2021/09/16 07:51:46;;;;;;;0.70;0.60;;;;;;;18.50;100.00;-21183.53;6250415;22;20453;-72
2021/09/16 07:54:13;;;;;;;0.70;0.70;;;;;;;18.47;100.00;-21182.56;6250505;22;20469;-71
2021/09/16 07:56:40;;;;;;;0.70;0.70;;;;;;;18.73;100.00;-21189.56;6277137;22;20437;-71
2021/09/16 07:59:08;;;;;;;0.70;0.70;;;;;;;18.61;100.00;-21186.28;6277417;22;20418;-72
2021/09/16 08:01:36;;;;;;;0.70;0.70;;;;;;;18.60;100.00;-21186.13;6249691;22;20425;-71
2021/09/16 08:04:04;;;;;;;0.80;0.70;;;;;;;18.76;100.00;-21190.53;6249965;22;20705;-71
2021/09/16 08:06:32;;;;;;;0.70;0.70;;;;;;;18.46;100.00;-21182.44;6249843;22;20406;-71
2021/09/16 08:08:59;;;;;;;1.27;1.17;;;;;;;18.73;100.00;-21189.69;6277024;22;20426;-71
2021/09/16 08:11:26;;;;;;;0.70;0.60;;;;;;;18.93;100.00;-21194.91;6250024;22;20369;-71
2021/09/16 08:13:54;;;;;;;0.80;0.80;;;;;;;18.94;100.00;-21195.16;6276951;22;20346;-70
2021/09/16 08:16:21;;;;;;;1.53;1.43;;;;;;;18.79;100.00;-21191.34;6250135;22;20785;-72
2021/09/16 08:18:52;;;;;;;0.70;0.60;;;;;;;19.01;100.00;-21197.09;6276641;22;20414;-71
2021/09/16 08:21:22;;;;;;;0.70;0.60;;;;;;;19.01;100.00;-21197.09;6250774;22;20815;-70
2021/09/16 08:23:49;;;;;;;0.70;0.70;;;;;;;18.88;100.00;-21193.53;6276310;22;20480;-71
2021/09/16 08:26:16;;;;;;;0.80;0.70;;;;;;;19.15;100.00;-21200.91;6276770;22;20380;-71
2021/09/16 08:28:45;;;;;;;0.70;0.70;;;;;;;18.97;100.00;-21196.13;6250519;22;20358;-71
2021/09/16 08:31:45;;;;;;;0.70;0.60;;;;;;;19.03;100.00;-21197.63;6230410;22;20395;-71
2021/09/16 08:34:15;;;;;;;0.70;0.70;;;;;;;19.03;100.00;-21197.63;6277309;22;20371;-71
2021/09/16 08:36:43;;;;;;;0.70;0.60;;;;;;;19.20;100.00;-21202.28;6250133;22;20425;-71
2021/09/16 08:39:10;;;;;;;1.03;1.00;;;;;;;19.15;100.00;-21200.78;6249524;22;20743;-71
2021/09/16 08:41:37;;;;;;;0.73;0.67;;;;;;;19.21;100.00;-21202.41;6276706;22;20840;-71
2021/09/16 08:44:05;;;;;;;1.10;1.00;;;;;;;19.28;100.00;-21204.34;6249260;22;20380;-70
2021/09/16 08:46:32;;;;;;;0.70;0.60;;;;;;;19.62;100.00;-21213.50;6224208;22;20482;-71
2021/09/16 08:48:59;;;;;;;0.80;0.70;;;;;;;19.46;100.00;-21209.25;6276928;22;20827;-70
2021/09/16 08:51:30;;;;;;;0.70;0.60;;;;;;;19.65;100.00;-21214.31;6224901;22;20411;-71
2021/09/16 08:54:01;;;;;;;0.80;0.80;;;;;;;19.87;100.00;-21220.06;6277111;22;20377;-70
2021/09/16 08:56:31;;;;;;;0.80;0.70;;;;;;;19.77;100.00;-21217.59;6249503;22;20372;-71
2021/09/16 08:59:03;;;;;;;1.33;1.23;;;;;;;19.75;100.00;-21217.06;6277114;22;20412;-70
2021/09/16 09:01:30;;;;;;;3.03;1.37;;;;;;;19.88;100.00;-21220.47;6275939;22;20343;-70
2021/09/16 09:03:57;;;;;;;0.80;0.60;;;;;;;19.84;100.00;-21219.25;6250265;22;20358;-70
2021/09/16 09:06:32;;;;;;;0.70;0.60;;;;;;;20.05;100.00;-21224.97;6249720;22;20424;-71
2021/09/16 09:09:10;;;;;;;0.70;0.60;;;;;;;20.21;100.00;-21229.22;6276676;22;20398;-71
2021/09/16 09:11:52;;;;;;;0.70;0.60;;;;;;;20.16;100.00;-21228.00;6276800;22;20774;-71
2021/09/16 09:14:21;;;;;;;0.70;0.60;;;;;;;20.16;100.00;-21228.00;6250025;22;20376;-71
2021/09/16 09:16:50;;;;;;;0.77;0.70;;;;;;;20.38;100.00;-21233.84;6248868;22;20894;-71
2021/09/16 09:19:19;;;;;;;0.70;0.70;;;;;;;20.67;100.00;-21241.66;6248991;22;20447;-71
2021/09/16 09:21:47;;;;;;;0.70;0.60;;;;;;;20.53;100.00;-21237.81;6276962;22;20466;-70
2021/09/16 09:24:32;;;;;;;0.70;0.60;;;;;;;20.58;100.00;-21239.19;6248284;22;20427;-71
2021/09/16 09:26:59;;;;;;;0.70;0.60;;;;;;;20.04;100.00;-21224.72;6276353;22;20671;-71
2021/09/16 09:29:27;;;;;;;0.70;0.60;;;;;;;20.16;100.00;-21228.00;6276412;22;20715;-71
2021/09/16 09:32:15;;;;;;;0.70;0.63;;;;;;;20.43;100.00;-21235.09;6276157;22;20430;-71
2021/09/16 09:34:45;;;;;;;0.90;0.80;;;;;;;20.69;100.00;-21242.06;6248949;22;20437;-70
2021/09/16 09:37:16;;;;;;;0.80;0.70;;;;;;;21.37;100.00;-21260.22;6276411;22;20387;-71
2021/09/16 09:39:47;;;;;;;0.70;0.60;;;;;;;21.29;100.00;-21258.03;6249729;22;20491;-71
2021/09/16 09:42:17;;;;;;;0.70;0.60;;;;;;;21.54;100.00;-21264.84;6276613;22;20424;-71
2021/09/16 09:44:44;;;;;;;0.70;0.60;;;;;;;21.48;100.00;-21263.19;6249840;22;20379;-71
2021/09/16 09:47:11;;;;;;;0.70;0.60;;;;;;;22.21;100.00;-21282.56;6275926;22;20874;-70
2021/09/16 09:49:39;;;;;;;0.80;0.70;;;;;;;23.36;100.00;-21313.31;6276566;22;20425;-71
2021/09/16 09:52:06;;;;;;;0.70;0.50;;;;;;;23.91;100.00;-21328.00;6249564;22;20457;-71
2021/09/16 09:54:37;;;;;;;0.70;0.60;;;;;;;23.72;100.00;-21322.97;6251122;22;20875;-71
2021/09/16 09:57:11;;;;;;;0.70;0.60;;;;;;;23.78;100.00;-21324.47;6251573;22;20835;-71
2021/09/16 10:00:07;;;;;;;0.70;0.50;;;;;;;23.67;100.00;-21321.47;6278616;22;20411;-71
2021/09/16 10:02:49;;;;;;;0.70;0.67;;;;;;;23.02;100.00;-21304.34;6278587;22;20359;-69
2021/09/16 10:05:20;;;;;;;1.00;0.83;;;;;;;23.06;100.00;-21305.44;6226366;22;20448;-72
2021/09/16 10:07:48;;;;;;;0.70;0.60;;;;;;;22.50;100.00;-21290.47;6278420;22;20409;-71
2021/09/16 10:10:17;;;;;;;0.70;0.60;;;;;;;23.29;100.00;-21311.41;6250960;22;20407;-71
2021/09/16 10:12:47;;;;;;;0.70;0.60;;;;;;;23.99;100.00;-21330.16;6278360;22;20771;-72
2021/09/16 10:15:16;;;;;;;0.83;0.77;;;;;;;24.77;100.00;-21350.81;6250731;22;20715;-72
2021/09/16 10:17:44;;;;;;;0.70;0.50;;;;;;;24.65;100.00;-21347.56;6278865;22;20385;-71
2021/09/16 10:20:13;;;;;;;0.70;0.50;;;;;;;24.97;100.00;-21356.25;6251147;22;20437;-71
2021/09/16 10:22:44;;;;;;;0.70;0.50;;;;;;;24.79;100.00;-21351.34;6278501;22;20407;-69
2021/09/16 10:25:13;;;;;;;0.70;0.50;;;;;;;23.06;100.00;-21305.28;6250704;22;20449;-69
2021/09/16 10:27:44;;;;;;;0.70;0.50;;;;;;;23.30;100.00;-21311.81;6251387;22;20383;-68
2021/09/16 10:30:30;;;;;;;0.70;0.60;;;;;;;23.26;100.00;-21310.72;6278049;22;20405;-71
2021/09/16 10:33:06;;;;;;;0.70;0.60;;;;;;;23.71;100.00;-21322.56;6225434;22;20406;-71
2021/09/16 10:35:35;;;;;;;0.70;0.60;;;;;;;24.53;100.00;-21344.44;6251379;22;20428;-71
2021/09/16 10:38:22;;;;;;;0.70;0.50;;;;;;;23.34;100.00;-21312.78;6278502;22;20432;-71
2021/09/16 10:41:10;;;;;;;0.70;0.60;;;;;;;22.00;100.00;-21276.97;6251006;22;21048;-71
2021/09/16 10:43:39;;;;;;;0.70;0.50;;;;;;;21.50;100.00;-21263.75;6278293;22;20432;-72
2021/09/16 10:46:21;;;;;;;0.70;0.60;;;;;;;21.20;100.00;-21255.69;6250648;22;20446;-71
2021/09/16 10:48:49;;;;;;;0.70;0.60;;;;;;;21.50;100.00;-21263.75;6250998;22;20470;-72
2021/09/16 10:51:35;;;;;;;0.70;0.60;;;;;;;22.01;100.00;-21277.38;6278138;22;20387;-71
2021/09/16 10:54:02;;;;;;;0.70;0.60;;;;;;;22.96;100.00;-21302.72;6251032;22;20406;-71
2021/09/16 10:56:37;;;;;;;0.70;0.60;;;;;;;22.77;100.00;-21297.66;6251237;22;20394;-71
2021/09/16 10:59:06;;;;;;;0.70;0.60;;;;;;;22.39;100.00;-21287.59;6251997;22;20418;-71
2021/09/16 11:01:58;;;;;;;0.70;0.60;;;;;;;22.57;100.00;-21292.38;6250806;22;20417;-71
2021/09/16 11:05:06;;;;;;;0.70;0.60;;;;;;;21.85;100.00;-21273.03;6250785;22;20469;-71
2021/09/16 11:07:55;;;;;;;0.70;0.60;;;;;;;21.46;100.00;-21262.66;6277811;22;20859;-71
2021/09/16 11:10:57;;;;;;;0.80;0.70;;;;;;;22.37;100.00;-21286.91;6277721;22;20823;-71
2021/09/16 11:13:50;;;;;;;0.70;0.60;;;;;;;23.57;100.00;-21319.03;6251036;22;20406;-71
2021/09/16 11:16:23;;;;;;;0.80;0.67;;;;;;;25.01;100.00;-21357.19;6250332;22;20379;-71
2021/09/16 11:18:52;;;;;;;0.80;0.60;;;;;;;23.93;100.00;-21328.53;6276763;22;20414;-71
2021/09/16 11:21:20;;;;;;;0.80;0.80;;;;;;;24.27;100.00;-21337.50;6251066;22;20387;-71
2021/09/16 11:23:49;;;;;;;1.00;0.70;;;;;;;24.19;100.00;-21335.31;6277235;22;20493;-72
2021/09/16 11:26:18;;;;;;;0.70;0.60;;;;;;;23.00;100.00;-21303.78;6250749;22;20372;-71
2021/09/16 11:28:58;;;;;;;0.70;0.60;;;;;;;22.21;100.00;-21282.56;6250612;22;20379;-71
2021/09/16 11:31:26;;;;;;;0.90;0.80;;;;;;;21.93;100.00;-21275.19;6277319;22;20367;-71
2021/09/16 11:34:08;;;;;;;0.70;0.60;;;;;;;21.52;100.00;-21264.28;6250791;22;20387;-71